Time;durP1;ratioP1;P1;durP2;ratioP2;P2;SDS_P1;SDS_P2;PMS_P1;PMS_P2;Temp;Humidity;BMP_temperature;BMP_pressure;BME280_temperature;BME280_humidity;BME280_pressure;Samples;Min_cycle;Max_cycle;Signal;HPM_P1;HPM_P2
2022/01/31 00:00:52;;;;;;;;;;;;;;;2.26;65.80;100240.87;5558073;32;35019;-89
2022/01/31 00:03:55;;;;;;;;;;;;;;;2.11;66.69;100242.62;5555771;32;34812;-88
2022/01/31 00:07:03;;;;;;;;;;;;;;;2.02;66.78;100250.97;5557226;32;34339;-86
2022/01/31 00:10:09;;;;;;;;;;;;;;;2.06;66.48;100250.72;5557275;32;34544;-89
2022/01/31 00:13:22;;;;;;;;;;;;;;;2.00;66.33;100243.22;5556899;32;35378;-88
2022/01/31 00:16:32;;;;;;;;;;;;;;;1.96;66.84;100242.56;5555903;32;34655;-88
2022/01/31 00:19:38;;;;;;;;;;;;;;;1.99;67.18;100236.31;5556828;32;35083;-87
2022/01/31 00:22:41;;;;;;;;;;;;;;;2.02;66.04;100236.16;5558491;32;34746;-88
2022/01/31 00:25:43;;;;;;;;;;;;;;;2.06;65.85;100231.59;5557993;32;35421;-87
2022/01/31 00:28:46;;;;;;;;;;;;;;;2.02;65.80;100246.59;5556334;32;35420;-88
2022/01/31 00:31:49;;;;;;;;;;;;;;;2.03;66.20;100243.06;5557621;32;34180;-87
2022/01/31 00:34:52;;;;;;;;;;;;;;;2.08;65.15;100256.69;5557551;32;34961;-87
2022/01/31 00:37:55;;;;;;;;;;;;;;;2.09;65.42;100253.13;5556666;32;34655;-88
2022/01/31 00:40:58;;;;;;;;;;;;;;;2.02;65.60;100258.81;5557671;32;34251;-87
2022/01/31 00:44:27;;;;;;;;;;;;;;;1.92;65.80;100261.09;5558351;32;34630;-87
2022/01/31 00:47:33;;;;;;;;;;;;;;;1.95;65.47;100268.75;5561413;32;35062;-86
2022/01/31 00:50:39;;;;;;;;;;;;;;;2.09;64.63;100245.31;5555620;32;35467;-88
2022/01/31 00:53:43;;;;;;;;;;;;;;;1.98;65.05;100245.94;5556788;32;35504;-87
2022/01/31 00:56:46;;;;;;;;;;;;;;;1.98;65.29;100258.13;5557743;32;34488;-88
2022/01/31 00:59:51;;;;;;;;;;;;;;;2.02;64.82;100238.75;5556522;32;34298;-90
2022/01/31 01:02:54;;;;;;;;;;;;;;;2.05;64.35;100271.66;5557149;32;35327;-87
2022/01/31 01:05:57;;;;;;;;;;;;;;;2.11;63.71;100243.44;5558670;32;35121;-87
2022/01/31 01:09:05;;;;;;;;;;;;;;;2.02;63.77;100243.97;5555691;32;34204;-89
2022/01/31 01:12:11;;;;;;;;;;;;;;;1.99;64.00;100246.75;5556925;32;34714;-84
2022/01/31 01:15:15;;;;;;;;;;;;;;;2.08;63.36;100246.25;5555980;32;34683;-88
2022/01/31 01:18:18;;;;;;;;;;;;;;;1.99;63.98;100262.41;5554810;32;34722;-88
2022/01/31 01:21:25;;;;;;;;;;;;;;;1.98;63.48;100256.38;5554345;32;35472;-88
2022/01/31 01:24:32;;;;;;;;;;;;;;;2.03;63.37;100268.31;5555404;32;35484;-89
2022/01/31 01:27:36;;;;;;;;;;;;;;;1.98;63.27;100263.34;5553930;32;35308;-89
2022/01/31 01:30:40;;;;;;;;;;;;;;;1.90;63.65;100274.22;5555367;32;33944;-88
2022/01/31 01:34:04;;;;;;;;;;;;;;;2.04;63.37;100281.28;5553251;32;34709;-88
2022/01/31 01:37:07;;;;;;;;;;;;;;;1.88;63.85;100281.31;5554113;32;34607;-90
2022/01/31 01:40:10;;;;;;;;;;;;;;;1.97;62.90;100280.78;5553963;32;34632;-89
2022/01/31 01:43:15;;;;;;;;;;;;;;;1.92;63.33;100284.56;5552760;32;34699;-89
2022/01/31 01:46:18;;;;;;;;;;;;;;;1.92;63.08;100287.19;5554437;32;34781;-88
2022/01/31 01:49:24;;;;;;;;;;;;;;;2.06;62.37;100289.88;5554335;32;34498;-89
2022/01/31 01:52:28;;;;;;;;;;;;;;;2.13;61.97;100291.19;5553377;32;34781;-89
2022/01/31 01:55:34;;;;;;;;;;;;;;;2.11;62.28;100271.34;5554213;32;34160;-88
2022/01/31 01:58:39;;;;;;;;;;;;;;;2.11;61.92;100269.53;5554788;32;34501;-87
2022/01/31 02:01:43;;;;;;;;;;;;;;;2.07;62.16;100268.06;5553459;32;34570;-88
2022/01/31 02:04:46;;;;;;;;;;;;;;;2.02;62.43;100267.47;5553728;32;34242;-88
2022/01/31 02:07:51;;;;;;;;;;;;;;;2.02;62.35;100257.03;5553991;32;35057;-88
2022/01/31 02:10:54;;;;;;;;;;;;;;;2.04;62.37;100265.62;5554721;32;34503;-87
2022/01/31 02:13:57;;;;;;;;;;;;;;;2.06;62.10;100263.78;5557776;32;35555;-88
2022/01/31 02:17:04;;;;;;;;;;;;;;;2.00;62.47;100248.44;5555314;32;34375;-88
2022/01/31 02:20:09;;;;;;;;;;;;;;;1.93;62.96;100254.94;5553256;32;32805;-87
2022/01/31 02:23:13;;;;;;;;;;;;;;;1.88;62.70;100254.34;5553460;32;34463;-88
2022/01/31 02:26:17;;;;;;;;;;;;;;;1.76;63.11;100230.63;5554059;32;34029;-88
2022/01/31 02:29:20;;;;;;;;;;;;;;;1.74;63.56;100237.72;5555613;32;34659;-87
2022/01/31 02:32:22;;;;;;;;;;;;;;;1.75;63.09;100249.81;5557199;32;34611;-88
2022/01/31 02:35:26;;;;;;;;;;;;;;;1.78;62.75;100227.97;5558521;32;35581;-88
2022/01/31 02:38:30;;;;;;;;;;;;;;;1.77;63.14;100232.31;5556192;32;35646;-88
2022/01/31 02:41:43;;;;;;;;;;;;;;;1.77;63.07;100229.72;5555072;32;35249;-88
2022/01/31 02:44:46;;;;;;;;;;;;;;;1.68;63.50;100225.00;5553337;32;34893;-88
2022/01/31 02:47:55;;;;;;;;;;;;;;;1.89;62.58;100224.72;5552650;32;34608;-88
2022/01/31 02:50:59;;;;;;;;;;;;;;;1.76;63.11;100204.56;5552551;32;34469;-88
2022/01/31 02:54:02;;;;;;;;;;;;;;;1.48;64.26;100208.72;5552761;32;34573;-88
2022/01/31 02:57:05;;;;;;;;;;;;;;;1.36;64.91;100206.78;5553379;32;35175;-88
2022/01/31 03:00:15;;;;;;;;;;;;;;;1.41;64.55;100193.50;5552956;32;34647;-88
2022/01/31 03:03:20;;;;;;;;;;;;;;;1.43;64.08;100192.47;5552408;32;35272;-88
2022/01/31 03:06:23;;;;;;;;;;;;;;;1.31;64.41;100177.50;5554742;32;35343;-87
2022/01/31 03:09:26;;;;;;;;;;;;;;;1.48;63.99;100174.81;5553261;32;34890;-88
2022/01/31 03:12:29;;;;;;;;;;;;;;;1.61;63.25;100168.94;5554583;32;35069;-87
2022/01/31 03:15:35;;;;;;;;;;;;;;;1.68;63.51;100185.91;5552106;32;34720;-88
2022/01/31 03:18:45;;;;;;;;;;;;;;;1.61;63.62;100174.12;5553030;32;35222;-88
2022/01/31 03:21:51;;;;;;;;;;;;;;;1.43;64.19;100176.84;5553066;32;34661;-88
2022/01/31 03:24:54;;;;;;;;;;;;;;;1.41;64.51;100159.59;5552869;32;34846;-88
2022/01/31 03:27:56;;;;;;;;;;;;;;;1.26;65.83;100158.69;5553887;32;35285;-88
2022/01/31 03:30:59;;;;;;;;;;;;;;;1.53;63.99;100164.12;5555558;32;34744;-88
2022/01/31 03:34:02;;;;;;;;;;;;;;;1.62;63.66;100160.19;5556340;32;34467;-87
2022/01/31 03:37:05;;;;;;;;;;;;;;;1.62;63.68;100152.34;5556642;32;34569;-88
2022/01/31 03:40:09;;;;;;;;;;;;;;;1.61;63.59;100155.87;5560277;32;34538;-87
2022/01/31 03:43:12;;;;;;;;;;;;;;;1.66;63.45;100146.00;5561350;32;35818;-88
2022/01/31 03:46:16;;;;;;;;;;;;;;;1.65;63.01;100160.84;5558824;32;35308;-88
2022/01/31 03:49:22;;;;;;;;;;;;;;;1.84;62.68;100168.47;5556876;32;34280;-88
2022/01/31 03:52:24;;;;;;;;;;;;;;;1.90;62.29;100172.47;5554657;32;35229;-88
2022/01/31 03:55:27;;;;;;;;;;;;;;;1.99;61.27;100171.09;5555030;32;34843;-88
2022/01/31 03:58:30;;;;;;;;;;;;;;;2.06;60.66;100156.78;5554818;32;34848;-88
2022/01/31 04:01:33;;;;;;;;;;;;;;;2.20;59.96;100149.88;5556008;32;34796;-88
2022/01/31 04:04:36;;;;;;;;;;;;;;;2.45;58.50;100155.31;5555486;32;34668;-87
2022/01/31 04:07:42;;;;;;;;;;;;;;;2.43;58.73;100149.34;5557334;32;35553;-88
2022/01/31 04:10:44;;;;;;;;;;;;;;;2.56;57.98;100135.53;5555160;32;34741;-89
2022/01/31 04:13:47;;;;;;;;;;;;;;;2.55;58.52;100120.78;5555624;32;35413;-88
2022/01/31 04:16:51;;;;;;;;;;;;;;;2.53;58.19;100131.34;5555181;32;34743;-88
2022/01/31 04:19:55;;;;;;;;;;;;;;;2.50;58.03;100121.06;5554839;32;34688;-88
2022/01/31 04:23:07;;;;;;;;;;;;;;;2.55;58.60;100123.41;5556229;32;34899;-88
2022/01/31 04:26:14;;;;;;;;;;;;;;;2.64;56.59;100101.97;5555933;32;34100;-88
2022/01/31 04:29:18;;;;;;;;;;;;;;;2.66;56.94;100110.53;5555990;32;34824;-88
2022/01/31 04:32:21;;;;;;;;;;;;;;;2.64;56.92;100112.41;5556703;32;35297;-87
2022/01/31 04:35:23;;;;;;;;;;;;;;;2.69;55.96;100119.97;5556539;32;35440;-88
2022/01/31 04:38:30;;;;;;;;;;;;;;;2.75;55.60;100109.97;5556730;32;34883;-88
2022/01/31 04:41:33;;;;;;;;;;;;;;;2.75;55.55;100089.09;5555581;32;35451;-88
2022/01/31 04:44:36;;;;;;;;;;;;;;;2.71;55.55;100102.41;5556905;32;34541;-88
2022/01/31 04:47:38;;;;;;;;;;;;;;;2.67;55.24;100106.97;5559250;32;35264;-86
2022/01/31 04:50:41;;;;;;;;;;;;;;;2.77;54.92;100110.69;5557321;32;34213;-88
2022/01/31 04:53:44;;;;;;;;;;;;;;;2.75;55.02;100096.06;5556170;32;34725;-88
2022/01/31 04:56:51;;;;;;;;;;;;;;;2.75;55.10;100119.56;5555277;32;34771;-88
2022/01/31 04:59:56;;;;;;;;;;;;;;;2.75;54.97;100119.56;5557084;32;35223;-87
2022/01/31 05:02:59;;;;;;;;;;;;;;;2.78;54.53;100104.53;5554841;32;35351;-87
2022/01/31 05:06:01;;;;;;;;;;;;;;;2.74;54.71;100092.63;5555303;32;35428;-88
2022/01/31 05:09:05;;;;;;;;;;;;;;;2.67;54.95;100093.91;5559792;32;35267;-87
2022/01/31 05:12:10;;;;;;;;;;;;;;;2.69;55.09;100054.66;5559897;32;35012;-87
2022/01/31 05:15:13;;;;;;;;;;;;;;;2.68;55.09;100032.09;5558981;32;34698;-88
2022/01/31 05:18:15;;;;;;;;;;;;;;;2.58;55.37;100037.03;5557465;32;34211;-87
2022/01/31 05:21:17;;;;;;;;;;;;;;;2.53;56.03;100036.50;5558148;32;35211;-86
2022/01/31 05:24:22;;;;;;;;;;;;;;;2.48;55.94;100049.81;5555619;32;35855;-88
2022/01/31 05:27:24;;;;;;;;;;;;;;;2.45;56.19;100040.41;5555261;32;34784;-88
2022/01/31 05:30:26;;;;;;;;;;;;;;;2.37;56.91;100058.34;5554807;32;35546;-88
2022/01/31 05:33:29;;;;;;;;;;;;;;;2.32;57.21;100052.53;5556581;32;34304;-88
2022/01/31 05:36:31;;;;;;;;;;;;;;;2.40;56.76;100052.94;5553164;32;35800;-88
2022/01/31 05:39:34;;;;;;;;;;;;;;;2.39;57.21;100030.37;5543831;32;35292;-88
2022/01/31 05:42:36;;;;;;;;;;;;;;;2.40;56.95;100016.37;5555308;32;34593;-88
2022/01/31 05:45:38;;;;;;;;;;;;;;;2.37;57.76;100011.34;5554732;32;34887;-88
2022/01/31 05:48:41;;;;;;;;;;;;;;;2.59;57.54;100028.28;5555775;32;34299;-88
2022/01/31 05:51:57;;;;;;;;;;;;;;;2.64;57.08;100015.78;5555161;32;35026;-88
2022/01/31 05:55:00;;;;;;;;;;;;;;;2.51;57.46;100013.06;5553774;32;35237;-88
2022/01/31 05:58:02;;;;;;;;;;;;;;;2.45;57.43;100006.47;5553775;32;35302;-88
2022/01/31 06:01:07;;;;;;;;;;;;;;;2.33;57.89;99999.41;5553276;32;34840;-88
2022/01/31 06:04:16;;;;;;;;;;;;;;;2.39;58.28;100009.47;5555201;32;34676;-88
2022/01/31 06:07:19;;;;;;;;;;;;;;;2.38;57.79;100025.22;5556265;32;34979;-88
2022/01/31 06:10:23;;;;;;;;;;;;;;;2.21;58.75;100024.50;5554523;32;34849;-89
2022/01/31 06:13:30;;;;;;;;;;;;;;;2.19;59.07;100028.16;5553990;32;35532;-88
2022/01/31 06:16:34;;;;;;;;;;;;;;;2.18;59.01;100022.06;5551346;32;34380;-88
2022/01/31 06:19:36;;;;;;;;;;;;;;;2.20;59.07;100028.03;5542115;32;34701;-88
2022/01/31 06:22:47;;;;;;;;;;;;;;;2.15;59.47;100012.66;5540810;32;34742;-88
2022/01/31 06:25:49;;;;;;;;;;;;;;;2.15;59.40;100012.66;5544487;31;34694;-87
2022/01/31 06:28:52;;;;;;;;;;;;;;;2.14;59.51;100015.34;5560197;32;35664;-87
2022/01/31 06:32:08;;;;;;;;;;;;;;;2.10;59.60;100012.09;5560182;32;35312;-87
2022/01/31 06:35:13;;;;;;;;;;;;;;;2.08;59.67;100006.16;5561000;32;34413;-87
2022/01/31 06:38:22;;;;;;;;;;;;;;;2.04;60.28;99999.44;5563566;32;34692;-87
2022/01/31 06:41:26;;;;;;;;;;;;;;;2.04;60.10;100003.81;5561261;32;35859;-87
2022/01/31 06:44:29;;;;;;;;;;;;;;;2.00;61.52;100000.53;5562018;32;36547;-87
2022/01/31 06:47:32;;;;;;;;;;;;;;;1.96;61.04;100002.50;5562332;32;34990;-88
2022/01/31 06:50:35;;;;;;;;;;;;;;;1.85;61.05;100016.22;5562684;32;35294;-87
2022/01/31 06:53:38;;;;;;;;;;;;;;;1.79;61.70;100021.78;5562416;32;35292;-87
2022/01/31 06:56:42;;;;;;;;;;;;;;;1.72;61.70;100014.41;5556982;32;34937;-86
2022/01/31 06:59:45;;;;;;;;;;;;;;;1.80;61.85;100005.22;5560524;32;34839;-88
2022/01/31 07:02:49;;;;;;;;;;;;;;;1.74;62.14;99997.75;5562980;32;35786;-88
2022/01/31 07:05:54;;;;;;;;;;;;;;;1.72;63.13;99983.97;5561580;32;35372;-86
2022/01/31 07:08:59;;;;;;;;;;;;;;;1.84;62.44;99977.16;5563123;32;35623;-85
2022/01/31 07:12:05;;;;;;;;;;;;;;;1.76;62.89;99980.22;5563897;32;34619;-85
2022/01/31 07:15:10;;;;;;;;;;;;;;;1.80;63.18;99981.72;5563212;32;34575;-85
2022/01/31 07:18:14;;;;;;;;;;;;;;;1.87;62.91;99971.78;5563742;32;34844;-84
2022/01/31 07:21:18;;;;;;;;;;;;;;;2.03;62.97;99966.44;5564041;32;35077;-86
2022/01/31 07:24:23;;;;;;;;;;;;;;;1.97;62.71;99951.19;5562900;32;35394;-85
2022/01/31 07:27:26;;;;;;;;;;;;;;;2.00;61.59;99956.19;5564154;32;34598;-86
2022/01/31 07:30:30;;;;;;;;;;;;;;;2.12;61.52;99945.00;5563789;32;35127;-86
2022/01/31 07:33:32;;;;;;;;;;;;;;;2.34;61.35;99951.47;5565008;32;34763;-85
2022/01/31 07:36:36;;;;;;;;;;;;;;;2.66;59.27;99940.75;5562889;32;34608;-86
2022/01/31 07:39:40;;;;;;;;;;;;;;;2.78;58.95;99942.56;5545560;32;34353;-86
2022/01/31 07:42:50;;;;;;;;;;;;;;;2.75;59.20;99937.56;5555498;32;34523;-86
2022/01/31 07:45:53;;;;;;;;;;;;;;;2.87;58.87;99929.84;5554380;32;34977;-87
2022/01/31 07:48:56;;;;;;;;;;;;;;;2.92;58.13;99922.53;5554360;32;34993;-87
2022/01/31 07:52:19;;;;;;;;;;;;;;;2.96;58.76;99923.16;5557462;32;35376;-88
2022/01/31 07:55:22;;;;;;;;;;;;;;;3.04;58.98;99911.28;5562666;32;35897;-87
2022/01/31 07:58:25;;;;;;;;;;;;;;;3.23;58.16;99913.50;5555079;32;34784;-87
2022/01/31 08:01:30;;;;;;;;;;;;;;;2.83;59.13;99903.06;5553756;32;34865;-87
2022/01/31 08:04:35;;;;;;;;;;;;;;;2.92;59.16;99902.47;5555083;32;35054;-86
2022/01/31 08:07:43;;;;;;;;;;;;;;;3.07;59.59;99905.84;5557691;32;34920;-87
2022/01/31 08:10:46;;;;;;;;;;;;;;;3.31;58.86;99912.97;5556794;32;34775;-87
2022/01/31 08:13:54;;;;;;;;;;;;;;;3.19;59.27;99913.81;5553747;32;35030;-86
2022/01/31 08:17:00;;;;;;;;;;;;;;;3.35;59.34;99918.84;5556234;32;35434;-86
2022/01/31 08:20:04;;;;;;;;;;;;;;;3.52;58.99;99904.59;5555826;32;34248;-87
2022/01/31 08:23:09;;;;;;;;;;;;;;;3.67;58.18;99908.75;5555123;32;34485;-87
2022/01/31 08:26:15;;;;;;;;;;;;;;;3.75;56.93;99904.78;5554172;32;34743;-88
2022/01/31 08:29:26;;;;;;;;;;;;;;;3.69;57.51;99904.25;5542297;32;34846;-87
2022/01/31 08:32:44;;;;;;;;;;;;;;;3.73;58.69;99909.28;5535176;32;34334;-87
2022/01/31 08:35:48;;;;;;;;;;;;;;;4.02;56.90;99897.59;5538556;32;34969;-87
2022/01/31 08:38:50;;;;;;;;;;;;;;;4.04;56.39;99900.13;5555372;32;34866;-87
2022/01/31 08:41:53;;;;;;;;;;;;;;;4.07;57.05;99896.44;5553556;32;34364;-87
2022/01/31 08:44:59;;;;;;;;;;;;;;;3.91;56.65;99892.28;5554000;32;35227;-87
2022/01/31 08:48:03;;;;;;;;;;;;;;;3.82;57.36;99879.84;5553977;32;34495;-87
2022/01/31 08:51:07;;;;;;;;;;;;;;;4.04;58.52;99879.19;5557815;32;34468;-87
2022/01/31 08:54:12;;;;;;;;;;;;;;;3.81;59.34;99875.56;5556430;32;34210;-87
2022/01/31 08:57:18;;;;;;;;;;;;;;;4.22;56.69;99868.31;5552579;32;34624;-87
2022/01/31 09:00:42;;;;;;;;;;;;;;;4.09;55.73;99860.53;5552580;32;34952;-88
2022/01/31 09:07:01;;;;;;;;;;;;;;;4.15;56.03;99862.69;5533876;32;35449;-87
2022/01/31 09:10:04;;;;;;;;;;;;;;;4.32;56.41;99856.22;5534032;32;34620;-87
2022/01/31 09:13:07;;;;;;;;;;;;;;;4.20;56.26;99863.22;5535278;32;35033;-88
2022/01/31 09:16:12;;;;;;;;;;;;;;;4.27;55.88;99853.12;5535893;32;34976;-88
2022/01/31 09:19:17;;;;;;;;;;;;;;;4.20;56.08;99852.72;5546167;32;35059;-88
2022/01/31 09:22:22;;;;;;;;;;;;;;;4.36;55.88;99851.59;5540700;32;36000;-87
2022/01/31 09:25:28;;;;;;;;;;;;;;;4.41;55.76;99850.31;5554849;32;34796;-88
2022/01/31 09:28:30;;;;;;;;;;;;;;;4.28;56.26;99867.88;5558905;32;34511;-88
2022/01/31 09:31:33;;;;;;;;;;;;;;;4.37;55.94;99863.75;5556169;32;35830;-87
2022/01/31 09:34:36;;;;;;;;;;;;;;;4.55;56.12;99845.84;5556938;32;34288;-88
2022/01/31 09:37:56;;;;;;;;;;;;;;;4.75;55.56;99832.09;5553903;32;36557;-88
2022/01/31 09:40:58;;;;;;;;;;;;;;;4.69;55.74;99827.31;5541570;32;34787;-88
2022/01/31 09:44:39;;;;;;;;;;;;;;;4.60;56.76;99828.00;5553471;32;35363;-88
2022/01/31 09:48:32;;;;;;;;;;;;;;;4.57;56.73;99812.50;5553351;32;34728;-88
2022/01/31 09:50:49;;;;;;;;;;;;;;;4.68;56.71;99809.94;5553148;32;34433;-88
2022/01/31 09:53:53;;;;;;;;;;;;;;;4.66;57.18;99801.34;5553209;32;34602;-88
2022/01/31 09:56:56;;;;;;;;;;;;;;;4.75;57.10;99779.69;5553473;32;34920;-88
2022/01/31 09:59:59;;;;;;;;;;;;;;;4.95;57.36;99765.06;5553599;32;34201;-88
2022/01/31 10:03:07;;;;;;;;;;;;;;;4.97;56.97;99766.72;5540021;32;35761;-88
2022/01/31 10:06:21;;;;;;;;;;;;;;;5.12;56.34;99765.56;5542056;32;34787;-88
2022/01/31 10:09:26;;;;;;;;;;;;;;;5.07;55.92;99751.94;5553059;32;35380;-88
2022/01/31 10:19:23;;;;;;;;;;;;;;;5.39;55.71;99738.09;5548220;32;34495;-88
2022/01/31 10:22:30;;;;;;;;;;;;;;;5.63;55.24;99732.66;5537248;32;34390;-88
2022/01/31 10:25:33;;;;;;;;;;;;;;;5.76;55.86;99726.44;5553682;32;34748;-87
2022/01/31 10:29:11;;;;;;;;;;;;;;;5.66;54.83;99715.88;5544771;32;34483;-88
2022/01/31 10:32:23;;;;;;;;;;;;;;;5.53;54.96;99713.38;5552607;32;34883;-88
2022/01/31 10:35:31;;;;;;;;;;;;;;;5.16;55.96;99696.16;5543703;32;34333;-89
2022/01/31 10:38:38;;;;;;;;;;;;;;;5.03;55.71;99687.59;5553580;32;34565;-88
2022/01/31 10:45:25;;;;;;;;;;;;;;;5.61;54.97;99687.38;5562831;32;34647;-87
2022/01/31 10:55:29;;;;;;;;;;;;;;;5.67;55.86;99665.03;5533145;32;34253;-88
2022/01/31 10:58:51;;;;;;;;;;;;;;;5.46;56.62;99652.69;5531273;32;34315;-88
2022/01/31 11:01:57;;;;;;;;;;;;;;;5.47;55.43;99643.84;5532801;32;34654;-88
2022/01/31 11:05:04;;;;;;;;;;;;;;;5.15;54.73;99633.34;5532663;32;34460;-88
2022/01/31 11:08:13;;;;;;;;;;;;;;;5.13;55.42;99625.59;5532563;32;34979;-87
2022/01/31 11:11:17;;;;;;;;;;;;;;;5.22;54.47;99618.78;5534671;32;34647;-87
2022/01/31 11:14:20;;;;;;;;;;;;;;;4.80;55.11;99614.22;5535244;32;34685;-88
2022/01/31 11:17:31;;;;;;;;;;;;;;;5.08;54.61;99609.41;5533857;32;35154;-87
2022/01/31 11:20:37;;;;;;;;;;;;;;;4.73;54.54;99603.38;5532073;32;34703;-87
2022/01/31 11:23:49;;;;;;;;;;;;;;;4.80;54.96;99588.00;5532331;32;35218;-87
2022/01/31 11:26:56;;;;;;;;;;;;;;;5.12;55.00;99566.28;5533230;32;34647;-86
2022/01/31 11:30:00;;;;;;;;;;;;;;;5.41;56.36;99565.66;5541384;32;34798;-86
2022/01/31 11:33:04;;;;;;;;;;;;;;;5.40;54.13;99564.81;5542449;32;34631;-86
2022/01/31 11:36:09;;;;;;;;;;;;;;;5.08;54.52;99562.22;5542496;32;34515;-86
2022/01/31 11:39:20;;;;;;;;;;;;;;;5.41;53.03;99549.94;5538369;32;35103;-86
2022/01/31 11:42:25;;;;;;;;;;;;;;;5.21;53.93;99530.56;5539242;32;34127;-85
2022/01/31 11:45:35;;;;;;;;;;;;;;;5.12;53.85;99534.81;5540305;32;35819;-85
2022/01/31 11:48:38;;;;;;;;;;;;;;;5.26;53.96;99526.63;5534432;32;36919;-87
2022/01/31 11:52:01;;;;;;;;;;;;;;;5.35;53.56;99534.69;5534051;32;35332;-88
2022/01/31 11:55:09;;;;;;;;;;;;;;;5.43;53.84;99521.78;5550019;32;34862;-87
2022/01/31 11:58:17;;;;;;;;;;;;;;;5.66;54.14;99503.28;5555438;32;34628;-87
2022/01/31 12:01:21;;;;;;;;;;;;;;;5.60;53.06;99485.41;5538497;32;34632;-87
2022/01/31 12:04:31;;;;;;;;;;;;;;;5.53;53.43;99485.94;5536596;32;34477;-87
2022/01/31 12:07:39;;;;;;;;;;;;;;;5.60;52.77;99503.78;5534345;32;34244;-88
2022/01/31 12:11:01;;;;;;;;;;;;;;;5.26;53.76;99504.81;5534934;32;34853;-87
2022/01/31 12:14:10;;;;;;;;;;;;;;;5.23;54.37;99495.41;5535157;32;35732;-87
2022/01/31 12:17:35;;;;;;;;;;;;;;;5.02;53.87;99500.63;5537431;32;34913;-87
2022/01/31 12:24:40;;;;;;;;;;;;;;;5.06;55.33;99498.59;5535740;32;35141;-87
2022/01/31 12:27:42;;;;;;;;;;;;;;;4.95;55.23;99508.16;5534133;32;34728;-87
2022/01/31 12:30:45;;;;;;;;;;;;;;;5.04;56.08;99505.72;5545366;32;34622;-87
2022/01/31 12:33:48;;;;;;;;;;;;;;;4.90;55.33;99499.81;5554419;32;34835;-87
2022/01/31 12:36:53;;;;;;;;;;;;;;;4.79;55.84;99502.47;5554038;32;33100;-87
2022/01/31 12:40:03;;;;;;;;;;;;;;;4.67;56.47;99487.75;5554655;32;34218;-87
2022/01/31 12:44:04;;;;;;;;;;;;;;;4.68;55.89;99486.78;5555804;32;34792;-87
2022/01/31 12:46:50;;;;;;;;;;;;;;;4.62;57.82;99464.53;5549026;32;34676;-87
2022/01/31 12:50:12;;;;;;;;;;;;;;;4.74;56.69;99465.34;5555082;32;35409;-88
2022/01/31 12:53:35;;;;;;;;;;;;;;;4.78;56.19;99453.66;5553862;32;34554;-87
2022/01/31 12:56:42;;;;;;;;;;;;;;;4.74;56.56;99453.06;5554005;32;34605;-87
2022/01/31 12:59:46;;;;;;;;;;;;;;;4.81;56.72;99442.09;5554561;32;34991;-87
2022/01/31 13:02:50;;;;;;;;;;;;;;;4.89;56.94;99456.25;5553299;32;35152;-87
2022/01/31 13:05:52;;;;;;;;;;;;;;;5.19;57.15;99441.56;5554177;32;35252;-87
2022/01/31 13:08:56;;;;;;;;;;;;;;;5.16;56.71;99436.56;5553252;32;34694;-87
2022/01/31 13:12:05;;;;;;;;;;;;;;;5.05;57.31;99439.25;5553596;32;34557;-87
2022/01/31 13:15:20;;;;;;;;;;;;;;;5.07;56.23;99421.59;5553652;32;35109;-87
2022/01/31 13:18:24;;;;;;;;;;;;;;;4.74;58.00;99411.12;5553517;32;34909;-87
2022/01/31 13:21:28;;;;;;;;;;;;;;;4.92;58.50;99397.50;5555469;32;34264;-87
2022/01/31 13:24:37;;;;;;;;;;;;;;;5.07;56.53;99395.38;5553557;32;34466;-87
2022/01/31 13:27:42;;;;;;;;;;;;;;;5.14;57.49;99407.00;5549579;32;34249;-87
2022/01/31 13:30:48;;;;;;;;;;;;;;;5.09;57.37;99398.72;5548507;32;34645;-87
2022/01/31 13:34:00;;;;;;;;;;;;;;;5.20;56.78;99400.41;5561847;32;35834;-87
2022/01/31 13:37:03;;;;;;;;;;;;;;;5.16;57.62;99385.91;5554797;32;34486;-87
2022/01/31 13:40:37;;;;;;;;;;;;;;;5.05;56.55;99387.66;5556604;32;34822;-87
2022/01/31 13:43:40;;;;;;;;;;;;;;;5.20;56.58;99385.53;5555245;32;35232;-87
2022/01/31 13:46:50;;;;;;;;;;;;;;;5.17;57.18;99384.97;5554455;32;35236;-87
2022/01/31 13:49:53;;;;;;;;;;;;;;;5.20;56.89;99385.53;5552680;32;34508;-87
2022/01/31 13:53:14;;;;;;;;;;;;;;;5.06;56.30;99375.34;5553473;32;34639;-87
2022/01/31 13:56:17;;;;;;;;;;;;;;;4.92;57.76;99366.84;5553019;32;34292;-87
2022/01/31 13:59:21;;;;;;;;;;;;;;;4.85;59.03;99370.94;5553543;32;34871;-87
2022/01/31 14:02:23;;;;;;;;;;;;;;;4.62;58.16;99357.97;5536225;32;35133;-87
2022/01/31 14:05:28;;;;;;;;;;;;;;;4.49;58.81;99365.16;5534312;32;35141;-86
2022/01/31 14:08:39;;;;;;;;;;;;;;;4.30;59.66;99356.19;5534490;32;35165;-87
2022/01/31 14:11:44;;;;;;;;;;;;;;;4.29;61.71;99357.12;5534944;32;34785;-87
2022/01/31 14:14:48;;;;;;;;;;;;;;;4.13;60.95;99356.69;5536797;32;34614;-86
2022/01/31 14:17:55;;;;;;;;;;;;;;;4.14;61.41;99360.97;5540854;32;34956;-87
2022/01/31 14:21:01;;;;;;;;;;;;;;;4.08;60.50;99358.88;5533993;32;34821;-87
2022/01/31 14:24:05;;;;;;;;;;;;;;;4.17;61.26;99360.75;5535015;32;34503;-89
2022/01/31 14:27:29;;;;;;;;;;;;;;;4.28;61.53;99349.38;5535549;32;34312;-89
2022/01/31 14:30:43;;;;;;;;;;;;;;;4.23;61.97;99344.53;5549569;32;34670;-87
2022/01/31 14:33:47;;;;;;;;;;;;;;;4.15;61.08;99341.69;5553712;32;34153;-87
2022/01/31 14:36:58;;;;;;;;;;;;;;;4.14;61.87;99340.03;5552021;32;34798;-87
2022/01/31 14:47:16;;;;;;;;;;;;;;;4.06;62.09;99342.44;5554005;32;35258;-87
2022/01/31 14:50:10;;;;;;;;;;;;;;;3.95;59.98;99331.06;5550722;32;34543;-87
2022/01/31 14:53:18;;;;;;;;;;;;;;;3.88;60.12;99329.87;5540415;32;35292;-86
2022/01/31 14:56:21;;;;;;;;;;;;;;;3.89;62.12;99326.28;5552645;32;34490;-87
2022/01/31 14:59:44;;;;;;;;;;;;;;;3.82;62.44;99322.50;5552153;32;34679;-87
2022/01/31 15:02:53;;;;;;;;;;;;;;;3.74;62.19;99328.34;5535085;32;34235;-87
2022/01/31 15:05:56;;;;;;;;;;;;;;;3.71;62.06;99329.44;5533941;32;34992;-87
2022/01/31 15:08:59;;;;;;;;;;;;;;;3.70;62.95;99327.75;5534150;32;34773;-86
2022/01/31 15:12:05;;;;;;;;;;;;;;;3.62;63.76;99327.53;5533224;32;34751;-87
2022/01/31 15:15:08;;;;;;;;;;;;;;;3.63;63.80;99330.97;5533934;32;35181;-87
2022/01/31 15:18:11;;;;;;;;;;;;;;;3.65;63.49;99329.06;5532632;32;34595;-86
2022/01/31 15:21:14;;;;;;;;;;;;;;;3.50;62.72;99325.88;5531615;32;34993;-87
2022/01/31 15:24:23;;;;;;;;;;;;;;;3.45;64.41;99313.16;5531662;32;34286;-87
2022/01/31 15:27:25;;;;;;;;;;;;;;;3.36;64.64;99319.94;5534597;32;34393;-87
2022/01/31 15:30:29;;;;;;;;;;;;;;;3.45;64.85;99330.63;5545574;32;34860;-88
2022/01/31 15:33:33;;;;;;;;;;;;;;;3.38;65.26;99328.50;5554305;32;33188;-87
2022/01/31 15:36:38;;;;;;;;;;;;;;;3.26;66.38;99328.63;5540444;32;34906;-87
2022/01/31 15:39:41;;;;;;;;;;;;;;;3.20;65.79;99330.75;5534906;32;33237;-89
2022/01/31 15:42:44;;;;;;;;;;;;;;;3.18;66.99;99323.97;5535753;32;34684;-87
2022/01/31 15:45:49;;;;;;;;;;;;;;;3.12;67.17;99327.91;5552943;32;36074;-88
2022/01/31 15:48:57;;;;;;;;;;;;;;;3.05;67.02;99330.13;5556942;32;34785;-89
2022/01/31 15:52:00;;;;;;;;;;;;;;;3.06;66.16;99333.56;5554070;32;33856;-87
2022/01/31 15:55:06;;;;;;;;;;;;;;;3.07;66.89;99336.09;5554328;32;34670;-87
2022/01/31 15:58:13;;;;;;;;;;;;;;;3.03;66.57;99334.66;5554619;32;35020;-88
2022/01/31 16:01:17;;;;;;;;;;;;;;;3.00;67.13;99342.72;5553991;32;35339;-87
2022/01/31 16:04:21;;;;;;;;;;;;;;;2.90;67.35;99328.69;5553660;32;34496;-86
2022/01/31 16:07:24;;;;;;;;;;;;;;;2.78;67.81;99336.50;5554405;32;34803;-86
2022/01/31 16:10:27;;;;;;;;;;;;;;;2.61;68.47;99345.59;5554102;32;34487;-86
2022/01/31 16:13:30;;;;;;;;;;;;;;;2.54;69.12;99346.16;5556337;32;33232;-86
2022/01/31 16:16:38;;;;;;;;;;;;;;;2.42;69.61;99343.50;5559005;32;34953;-86
2022/01/31 16:19:41;;;;;;;;;;;;;;;2.37;69.74;99343.00;5559109;32;34484;-86
2022/01/31 16:22:44;;;;;;;;;;;;;;;2.46;69.43;99342.34;5555212;32;34795;-86
2022/01/31 16:25:47;;;;;;;;;;;;;;;2.43;70.56;99347.75;5554346;32;34301;-86
2022/01/31 16:28:50;;;;;;;;;;;;;;;2.65;68.11;99356.62;5554394;32;34879;-87
2022/01/31 16:31:52;;;;;;;;;;;;;;;2.62;67.92;99351.66;5554065;32;34761;-87
2022/01/31 16:34:55;;;;;;;;;;;;;;;2.68;68.03;99345.97;5553942;32;34740;-86
2022/01/31 16:38:04;;;;;;;;;;;;;;;2.71;68.79;99350.12;5552671;32;34697;-86
2022/01/31 16:41:07;;;;;;;;;;;;;;;2.63;68.05;99350.72;5553648;32;34642;-86
2022/01/31 16:44:12;;;;;;;;;;;;;;;2.65;68.24;99369.69;5541978;32;34639;-86
2022/01/31 16:47:15;;;;;;;;;;;;;;;2.71;67.73;99360.56;5534428;32;34502;-88